sensor_id;sensor_type;location;lat;lon;timestamp;P1;durP1;ratioP1;P2;durP2;ratioP2
21152;SDS011;10734;44.792;20.482;2024-03-23T00:54:02;49.92;;;24.52;;
21152;SDS011;10734;44.792;20.482;2024-03-23T00:56:31;43.25;;;20.83;;
21152;SDS011;10734;44.792;20.482;2024-03-23T00:58:57;46.55;;;22.50;;
21152;SDS011;10734;44.792;20.482;2024-03-23T01:01:27;37.83;;;20.42;;
21152;SDS011;10734;44.792;20.482;2024-03-23T01:03:55;40.88;;;22.50;;
21152;SDS011;10734;44.792;20.482;2024-03-23T01:06:23;56.10;;;24.27;;
21152;SDS011;10734;44.792;20.482;2024-03-23T01:08:50;47.38;;;23.30;;
21152;SDS011;10734;44.792;20.482;2024-03-23T01:11:21;36.92;;;21.45;;
21152;SDS011;10734;44.792;20.482;2024-03-23T01:13:48;40.90;;;20.85;;
21152;SDS011;10734;44.792;20.482;2024-03-23T01:16:16;35.85;;;19.50;;
21152;SDS011;10734;44.792;20.482;2024-03-23T01:18:42;38.00;;;21.33;;
21152;SDS011;10734;44.792;20.482;2024-03-23T01:21:11;43.20;;;22.00;;
21152;SDS011;10734;44.792;20.482;2024-03-23T01:23:37;40.78;;;19.52;;
21152;SDS011;10734;44.792;20.482;2024-03-23T01:26:05;35.97;;;19.33;;
21152;SDS011;10734;44.792;20.482;2024-03-23T01:28:33;38.70;;;19.50;;
21152;SDS011;10734;44.792;20.482;2024-03-23T01:31:01;34.85;;;18.70;;
21152;SDS011;10734;44.792;20.482;2024-03-23T01:33:28;39.67;;;20.83;;
21152;SDS011;10734;44.792;20.482;2024-03-23T01:35:56;33.30;;;18.13;;
21152;SDS011;10734;44.792;20.482;2024-03-23T01:38:23;29.42;;;16.35;;
21152;SDS011;10734;44.792;20.482;2024-03-23T01:40:56;33.67;;;17.75;;
21152;SDS011;10734;44.792;20.482;2024-03-23T01:43:24;30.50;;;16.50;;
21152;SDS011;10734;44.792;20.482;2024-03-23T01:45:55;42.22;;;19.55;;
21152;SDS011;10734;44.792;20.482;2024-03-23T01:48:22;34.42;;;17.85;;
21152;SDS011;10734;44.792;20.482;2024-03-23T01:50:50;43.10;;;19.70;;
21152;SDS011;10734;44.792;20.482;2024-03-23T01:53:17;39.38;;;18.45;;
21152;SDS011;10734;44.792;20.482;2024-03-23T01:55:47;33.95;;;18.98;;
21152;SDS011;10734;44.792;20.482;2024-03-23T01:58:14;37.03;;;18.48;;
21152;SDS011;10734;44.792;20.482;2024-03-23T02:00:42;36.17;;;19.13;;
21152;SDS011;10734;44.792;20.482;2024-03-23T02:03:24;36.10;;;19.13;;
21152;SDS011;10734;44.792;20.482;2024-03-23T02:05:52;34.67;;;18.45;;
21152;SDS011;10734;44.792;20.482;2024-03-23T02:08:20;35.22;;;17.25;;
21152;SDS011;10734;44.792;20.482;2024-03-23T02:10:48;32.30;;;17.63;;
21152;SDS011;10734;44.792;20.482;2024-03-23T02:13:16;38.10;;;17.58;;
21152;SDS011;10734;44.792;20.482;2024-03-23T02:15:45;30.85;;;15.77;;
21152;SDS011;10734;44.792;20.482;2024-03-23T02:18:11;35.47;;;17.85;;
21152;SDS011;10734;44.792;20.482;2024-03-23T02:20:45;30.35;;;16.42;;
21152;SDS011;10734;44.792;20.482;2024-03-23T02:23:16;27.27;;;13.82;;
21152;SDS011;10734;44.792;20.482;2024-03-23T02:25:45;32.63;;;17.67;;
21152;SDS011;10734;44.792;20.482;2024-03-23T02:28:11;28.75;;;15.80;;
21152;SDS011;10734;44.792;20.482;2024-03-23T02:30:41;26.10;;;15.40;;
21152;SDS011;10734;44.792;20.482;2024-03-23T02:33:09;27.63;;;16.20;;
21152;SDS011;10734;44.792;20.482;2024-03-23T02:35:38;30.27;;;15.80;;
21152;SDS011;10734;44.792;20.482;2024-03-23T02:38:04;31.08;;;16.20;;
21152;SDS011;10734;44.792;20.482;2024-03-23T02:40:34;31.63;;;17.90;;
21152;SDS011;10734;44.792;20.482;2024-03-23T02:43:01;28.05;;;15.82;;
21152;SDS011;10734;44.792;20.482;2024-03-23T02:45:29;35.60;;;18.52;;
21152;SDS011;10734;44.792;20.482;2024-03-23T02:47:56;31.02;;;15.95;;
21152;SDS011;10734;44.792;20.482;2024-03-23T02:50:24;26.15;;;14.77;;
21152;SDS011;10734;44.792;20.482;2024-03-23T02:52:51;35.08;;;17.23;;
21152;SDS011;10734;44.792;20.482;2024-03-23T02:55:21;33.95;;;16.35;;
21152;SDS011;10734;44.792;20.482;2024-03-23T02:57:49;25.80;;;14.95;;
21152;SDS011;10734;44.792;20.482;2024-03-23T03:00:17;30.98;;;15.77;;
21152;SDS011;10734;44.792;20.482;2024-03-23T03:02:44;22.90;;;12.10;;
21152;SDS011;10734;44.792;20.482;2024-03-23T03:05:11;34.63;;;17.42;;
21152;SDS011;10734;44.792;20.482;2024-03-23T03:07:39;26.27;;;13.38;;
21152;SDS011;10734;44.792;20.482;2024-03-23T03:10:07;25.05;;;13.30;;
21152;SDS011;10734;44.792;20.482;2024-03-23T03:12:37;33.10;;;15.85;;
21152;SDS011;10734;44.792;20.482;2024-03-23T03:15:07;24.35;;;12.60;;
21152;SDS011;10734;44.792;20.482;2024-03-23T03:17:35;32.58;;;14.60;;
21152;SDS011;10734;44.792;20.482;2024-03-23T03:20:05;32.15;;;15.32;;
21152;SDS011;10734;44.792;20.482;2024-03-23T03:22:33;29.52;;;14.43;;
21152;SDS011;10734;44.792;20.482;2024-03-23T03:25:00;38.08;;;14.75;;
21152;SDS011;10734;44.792;20.482;2024-03-23T03:27:29;33.55;;;15.07;;
21152;SDS011;10734;44.792;20.482;2024-03-23T03:29:58;21.02;;;13.65;;
21152;SDS011;10734;44.792;20.482;2024-03-23T03:32:28;29.25;;;13.93;;
21152;SDS011;10734;44.792;20.482;2024-03-23T03:34:56;23.50;;;12.88;;
21152;SDS011;10734;44.792;20.482;2024-03-23T03:37:23;26.25;;;13.40;;
21152;SDS011;10734;44.792;20.482;2024-03-23T03:39:52;22.13;;;12.13;;
21152;SDS011;10734;44.792;20.482;2024-03-23T03:42:18;28.60;;;13.13;;
21152;SDS011;10734;44.792;20.482;2024-03-23T03:44:48;28.95;;;13.27;;
21152;SDS011;10734;44.792;20.482;2024-03-23T03:47:16;20.13;;;11.77;;
21152;SDS011;10734;44.792;20.482;2024-03-23T03:49:45;25.70;;;13.32;;
21152;SDS011;10734;44.792;20.482;2024-03-23T03:52:11;22.80;;;11.95;;
21152;SDS011;10734;44.792;20.482;2024-03-23T03:54:39;21.08;;;12.05;;
21152;SDS011;10734;44.792;20.482;2024-03-23T03:57:06;23.58;;;12.30;;
21152;SDS011;10734;44.792;20.482;2024-03-23T03:59:34;23.10;;;12.45;;
21152;SDS011;10734;44.792;20.482;2024-03-23T04:02:01;15.70;;;9.85;;
21152;SDS011;10734;44.792;20.482;2024-03-23T04:04:29;27.65;;;13.98;;
21152;SDS011;10734;44.792;20.482;2024-03-23T04:07:00;31.05;;;15.15;;
21152;SDS011;10734;44.792;20.482;2024-03-23T04:09:31;27.52;;;14.32;;
21152;SDS011;10734;44.792;20.482;2024-03-23T04:11:58;29.27;;;14.68;;
21152;SDS011;10734;44.792;20.482;2024-03-23T04:14:26;31.38;;;15.15;;
21152;SDS011;10734;44.792;20.482;2024-03-23T04:16:52;39.53;;;16.83;;
21152;SDS011;10734;44.792;20.482;2024-03-23T04:19:21;30.05;;;14.93;;
21152;SDS011;10734;44.792;20.482;2024-03-23T04:21:47;30.95;;;16.05;;
21152;SDS011;10734;44.792;20.482;2024-03-23T04:24:16;31.38;;;16.85;;
21152;SDS011;10734;44.792;20.482;2024-03-23T04:26:46;26.88;;;15.43;;
21152;SDS011;10734;44.792;20.482;2024-03-23T04:29:13;38.72;;;20.83;;
21152;SDS011;10734;44.792;20.482;2024-03-23T04:31:40;33.03;;;16.38;;
21152;SDS011;10734;44.792;20.482;2024-03-23T04:34:08;28.70;;;15.63;;
21152;SDS011;10734;44.792;20.482;2024-03-23T04:36:37;29.98;;;15.88;;
21152;SDS011;10734;44.792;20.482;2024-03-23T04:39:06;28.48;;;15.32;;
21152;SDS011;10734;44.792;20.482;2024-03-23T04:41:36;26.15;;;13.70;;
21152;SDS011;10734;44.792;20.482;2024-03-23T04:44:03;31.63;;;15.35;;
21152;SDS011;10734;44.792;20.482;2024-03-23T04:46:33;30.33;;;15.15;;
21152;SDS011;10734;44.792;20.482;2024-03-23T04:49:01;30.17;;;16.70;;
21152;SDS011;10734;44.792;20.482;2024-03-23T04:51:35;32.35;;;15.77;;
21152;SDS011;10734;44.792;20.482;2024-03-23T04:54:06;27.05;;;15.35;;
21152;SDS011;10734;44.792;20.482;2024-03-23T04:56:33;34.70;;;15.77;;
21152;SDS011;10734;44.792;20.482;2024-03-23T04:59:03;28.60;;;15.38;;
21152;SDS011;10734;44.792;20.482;2024-03-23T05:01:31;26.80;;;13.73;;
21152;SDS011;10734;44.792;20.482;2024-03-23T05:04:02;25.85;;;12.18;;
21152;SDS011;10734;44.792;20.482;2024-03-23T05:06:29;30.45;;;14.23;;
21152;SDS011;10734;44.792;20.482;2024-03-23T05:08:57;30.02;;;14.85;;
21152;SDS011;10734;44.792;20.482;2024-03-23T05:11:24;24.27;;;11.82;;
21152;SDS011;10734;44.792;20.482;2024-03-23T05:13:54;25.10;;;12.82;;
21152;SDS011;10734;44.792;20.482;2024-03-23T05:16:20;25.02;;;12.95;;
21152;SDS011;10734;44.792;20.482;2024-03-23T05:18:48;23.52;;;12.40;;
21152;SDS011;10734;44.792;20.482;2024-03-23T05:21:15;23.42;;;13.15;;
21152;SDS011;10734;44.792;20.482;2024-03-23T05:23:43;24.80;;;13.68;;
21152;SDS011;10734;44.792;20.482;2024-03-23T05:26:09;26.10;;;13.52;;
21152;SDS011;10734;44.792;20.482;2024-03-23T05:28:37;28.00;;;13.23;;
21152;SDS011;10734;44.792;20.482;2024-03-23T05:31:05;23.60;;;12.93;;
21152;SDS011;10734;44.792;20.482;2024-03-23T05:33:34;29.75;;;14.70;;
21152;SDS011;10734;44.792;20.482;2024-03-23T05:36:01;24.80;;;13.20;;
21152;SDS011;10734;44.792;20.482;2024-03-23T05:38:29;23.40;;;12.80;;
21152;SDS011;10734;44.792;20.482;2024-03-23T05:40:56;23.83;;;12.60;;
21152;SDS011;10734;44.792;20.482;2024-03-23T05:43:25;25.65;;;12.07;;
21152;SDS011;10734;44.792;20.482;2024-03-23T05:45:55;25.83;;;12.80;;
21152;SDS011;10734;44.792;20.482;2024-03-23T05:48:24;24.83;;;13.75;;
21152;SDS011;10734;44.792;20.482;2024-03-23T05:50:53;25.35;;;10.75;;
21152;SDS011;10734;44.792;20.482;2024-03-23T05:53:20;28.05;;;12.77;;
21152;SDS011;10734;44.792;20.482;2024-03-23T05:55:48;22.05;;;12.43;;
21152;SDS011;10734;44.792;20.482;2024-03-23T05:58:17;22.70;;;12.50;;
21152;SDS011;10734;44.792;20.482;2024-03-23T06:00:47;32.20;;;13.85;;
21152;SDS011;10734;44.792;20.482;2024-03-23T06:03:14;23.02;;;12.02;;
21152;SDS011;10734;44.792;20.482;2024-03-23T06:05:43;20.30;;;11.65;;
21152;SDS011;10734;44.792;20.482;2024-03-23T06:08:11;27.63;;;14.10;;
21152;SDS011;10734;44.792;20.482;2024-03-23T06:10:39;28.25;;;13.77;;
21152;SDS011;10734;44.792;20.482;2024-03-23T06:13:05;21.83;;;11.85;;
21152;SDS011;10734;44.792;20.482;2024-03-23T06:15:33;21.40;;;12.27;;
21152;SDS011;10734;44.792;20.482;2024-03-23T06:18:03;27.30;;;11.25;;
21152;SDS011;10734;44.792;20.482;2024-03-23T06:20:33;18.48;;;10.38;;
21152;SDS011;10734;44.792;20.482;2024-03-23T06:23:02;26.92;;;10.82;;
21152;SDS011;10734;44.792;20.482;2024-03-23T06:25:30;21.90;;;11.63;;
21152;SDS011;10734;44.792;20.482;2024-03-23T06:27:58;22.33;;;11.38;;
21152;SDS011;10734;44.792;20.482;2024-03-23T06:30:27;22.70;;;11.27;;
21152;SDS011;10734;44.792;20.482;2024-03-23T06:32:55;21.25;;;10.07;;
21152;SDS011;10734;44.792;20.482;2024-03-23T06:35:23;19.48;;;10.98;;
21152;SDS011;10734;44.792;20.482;2024-03-23T06:37:49;19.83;;;9.90;;
21152;SDS011;10734;44.792;20.482;2024-03-23T06:40:19;26.55;;;10.50;;
21152;SDS011;10734;44.792;20.482;2024-03-23T06:42:46;18.55;;;10.25;;
21152;SDS011;10734;44.792;20.482;2024-03-23T06:45:17;16.30;;;9.40;;
21152;SDS011;10734;44.792;20.482;2024-03-23T06:47:51;21.45;;;12.27;;
21152;SDS011;10734;44.792;20.482;2024-03-23T06:50:18;30.23;;;11.68;;
21152;SDS011;10734;44.792;20.482;2024-03-23T06:52:45;20.38;;;11.57;;
21152;SDS011;10734;44.792;20.482;2024-03-23T06:55:13;23.35;;;10.32;;
21152;SDS011;10734;44.792;20.482;2024-03-23T06:57:42;17.15;;;9.77;;
21152;SDS011;10734;44.792;20.482;2024-03-23T07:00:11;18.48;;;8.85;;
21152;SDS011;10734;44.792;20.482;2024-03-23T07:02:39;26.83;;;9.95;;
21152;SDS011;10734;44.792;20.482;2024-03-23T07:05:06;17.00;;;8.60;;
21152;SDS011;10734;44.792;20.482;2024-03-23T07:07:33;15.20;;;8.85;;
21152;SDS011;10734;44.792;20.482;2024-03-23T07:10:01;16.20;;;8.63;;
21152;SDS011;10734;44.792;20.482;2024-03-23T07:12:28;19.08;;;8.80;;
21152;SDS011;10734;44.792;20.482;2024-03-23T07:14:58;16.30;;;8.13;;
21152;SDS011;10734;44.792;20.482;2024-03-23T07:17:25;19.90;;;8.50;;
21152;SDS011;10734;44.792;20.482;2024-03-23T07:19:53;17.20;;;8.70;;
21152;SDS011;10734;44.792;20.482;2024-03-23T07:22:20;20.75;;;8.20;;
21152;SDS011;10734;44.792;20.482;2024-03-23T07:24:51;20.88;;;8.40;;
21152;SDS011;10734;44.792;20.482;2024-03-23T07:27:20;18.98;;;8.05;;
21152;SDS011;10734;44.792;20.482;2024-03-23T07:29:49;16.65;;;8.40;;
21152;SDS011;10734;44.792;20.482;2024-03-23T07:32:17;16.15;;;8.50;;
21152;SDS011;10734;44.792;20.482;2024-03-23T07:34:45;14.27;;;7.15;;
21152;SDS011;10734;44.792;20.482;2024-03-23T07:37:12;18.90;;;7.30;;
21152;SDS011;10734;44.792;20.482;2024-03-23T07:39:40;13.57;;;7.72;;
21152;SDS011;10734;44.792;20.482;2024-03-23T07:42:07;13.45;;;7.97;;
21152;SDS011;10734;44.792;20.482;2024-03-23T07:44:37;12.10;;;6.60;;
21152;SDS011;10734;44.792;20.482;2024-03-23T07:47:04;11.55;;;7.20;;
21152;SDS011;10734;44.792;20.482;2024-03-23T07:49:37;16.30;;;7.37;;
21152;SDS011;10734;44.792;20.482;2024-03-23T07:52:04;15.02;;;6.93;;
21152;SDS011;10734;44.792;20.482;2024-03-23T07:54:32;16.35;;;7.60;;
21152;SDS011;10734;44.792;20.482;2024-03-23T07:56:58;11.45;;;7.53;;
21152;SDS011;10734;44.792;20.482;2024-03-23T07:59:29;16.35;;;7.18;;
21152;SDS011;10734;44.792;20.482;2024-03-23T08:01:58;13.90;;;6.95;;
21152;SDS011;10734;44.792;20.482;2024-03-23T08:04:27;15.25;;;7.32;;
21152;SDS011;10734;44.792;20.482;2024-03-23T08:06:55;14.90;;;8.05;;
21152;SDS011;10734;44.792;20.482;2024-03-23T08:09:24;11.68;;;7.38;;
21152;SDS011;10734;44.792;20.482;2024-03-23T08:11:51;13.90;;;7.55;;
21152;SDS011;10734;44.792;20.482;2024-03-23T08:14:19;14.10;;;7.38;;
21152;SDS011;10734;44.792;20.482;2024-03-23T08:16:46;12.75;;;7.18;;
21152;SDS011;10734;44.792;20.482;2024-03-23T08:19:22;14.60;;;6.75;;
21152;SDS011;10734;44.792;20.482;2024-03-23T08:21:48;12.00;;;7.53;;
21152;SDS011;10734;44.792;20.482;2024-03-23T08:24:18;11.70;;;6.78;;
21152;SDS011;10734;44.792;20.482;2024-03-23T08:26:45;11.13;;;6.45;;
21152;SDS011;10734;44.792;20.482;2024-03-23T08:29:16;11.23;;;6.68;;
21152;SDS011;10734;44.792;20.482;2024-03-23T08:31:43;14.40;;;6.85;;
21152;SDS011;10734;44.792;20.482;2024-03-23T08:34:11;16.25;;;6.95;;
21152;SDS011;10734;44.792;20.482;2024-03-23T08:36:38;15.38;;;7.10;;
21152;SDS011;10734;44.792;20.482;2024-03-23T08:39:06;11.32;;;6.68;;
21152;SDS011;10734;44.792;20.482;2024-03-23T08:41:34;9.30;;;6.47;;
21152;SDS011;10734;44.792;20.482;2024-03-23T08:44:02;13.93;;;6.85;;
21152;SDS011;10734;44.792;20.482;2024-03-23T08:46:28;9.35;;;6.03;;
21152;SDS011;10734;44.792;20.482;2024-03-23T08:48:56;12.32;;;6.53;;
21152;SDS011;10734;44.792;20.482;2024-03-23T08:51:24;10.35;;;7.00;;
21152;SDS011;10734;44.792;20.482;2024-03-23T08:53:52;13.50;;;5.78;;
21152;SDS011;10734;44.792;20.482;2024-03-23T08:56:19;11.55;;;6.88;;
21152;SDS011;10734;44.792;20.482;2024-03-23T08:58:48;8.88;;;5.60;;
21152;SDS011;10734;44.792;20.482;2024-03-23T09:01:14;8.15;;;5.85;;
21152;SDS011;10734;44.792;20.482;2024-03-23T09:03:42;9.98;;;6.10;;
21152;SDS011;10734;44.792;20.482;2024-03-23T09:06:09;11.82;;;5.18;;
21152;SDS011;10734;44.792;20.482;2024-03-23T09:08:38;12.52;;;5.63;;
21152;SDS011;10734;44.792;20.482;2024-03-23T09:11:06;9.55;;;5.43;;
21152;SDS011;10734;44.792;20.482;2024-03-23T09:13:35;8.65;;;5.22;;
21152;SDS011;10734;44.792;20.482;2024-03-23T09:16:04;9.93;;;5.40;;
21152;SDS011;10734;44.792;20.482;2024-03-23T09:18:33;9.77;;;5.63;;
21152;SDS011;10734;44.792;20.482;2024-03-23T09:21:01;10.50;;;6.05;;
21152;SDS011;10734;44.792;20.482;2024-03-23T09:23:28;13.13;;;5.80;;
21152;SDS011;10734;44.792;20.482;2024-03-23T09:25:55;7.97;;;5.18;;
21152;SDS011;10734;44.792;20.482;2024-03-23T09:28:23;7.45;;;4.53;;
21152;SDS011;10734;44.792;20.482;2024-03-23T09:30:49;8.02;;;4.50;;
21152;SDS011;10734;44.792;20.482;2024-03-23T09:33:19;4.82;;;4.22;;
21152;SDS011;10734;44.792;20.482;2024-03-23T09:35:45;14.20;;;5.07;;
21152;SDS011;10734;44.792;20.482;2024-03-23T09:38:13;6.72;;;4.55;;
21152;SDS011;10734;44.792;20.482;2024-03-23T09:40:40;8.38;;;4.75;;
21152;SDS011;10734;44.792;20.482;2024-03-23T09:43:09;7.72;;;4.63;;
21152;SDS011;10734;44.792;20.482;2024-03-23T09:45:36;9.93;;;4.13;;
21152;SDS011;10734;44.792;20.482;2024-03-23T09:48:06;9.88;;;4.28;;
21152;SDS011;10734;44.792;20.482;2024-03-23T09:50:37;7.78;;;4.15;;
21152;SDS011;10734;44.792;20.482;2024-03-23T09:53:06;6.28;;;3.72;;
21152;SDS011;10734;44.792;20.482;2024-03-23T09:55:33;5.95;;;4.22;;
21152;SDS011;10734;44.792;20.482;2024-03-23T09:58:02;12.68;;;4.22;;
21152;SDS011;10734;44.792;20.482;2024-03-23T10:00:30;8.73;;;4.22;;
21152;SDS011;10734;44.792;20.482;2024-03-23T10:02:59;6.13;;;4.20;;
21152;SDS011;10734;44.792;20.482;2024-03-23T10:05:28;9.25;;;4.47;;
21152;SDS011;10734;44.792;20.482;2024-03-23T10:07:58;6.72;;;3.97;;
21152;SDS011;10734;44.792;20.482;2024-03-23T10:10:25;8.85;;;3.97;;
21152;SDS011;10734;44.792;20.482;2024-03-23T10:12:53;5.43;;;4.22;;
21152;SDS011;10734;44.792;20.482;2024-03-23T10:15:20;5.38;;;3.45;;
21152;SDS011;10734;44.792;20.482;2024-03-23T10:17:49;5.97;;;3.17;;
21152;SDS011;10734;44.792;20.482;2024-03-23T10:20:19;6.55;;;3.40;;
21152;SDS011;10734;44.792;20.482;2024-03-23T10:22:48;4.28;;;3.30;;
21152;SDS011;10734;44.792;20.482;2024-03-23T10:25:17;6.32;;;3.42;;
21152;SDS011;10734;44.792;20.482;2024-03-23T10:27:56;10.20;;;4.03;;
21152;SDS011;10734;44.792;20.482;2024-03-23T10:30:25;8.80;;;3.17;;
21152;SDS011;10734;44.792;20.482;2024-03-23T10:33:06;5.10;;;3.15;;
21152;SDS011;10734;44.792;20.482;2024-03-23T10:35:33;5.20;;;2.83;;
21152;SDS011;10734;44.792;20.482;2024-03-23T10:38:02;3.08;;;2.70;;
21152;SDS011;10734;44.792;20.482;2024-03-23T10:40:32;5.18;;;3.08;;
21152;SDS011;10734;44.792;20.482;2024-03-23T10:43:02;9.98;;;2.42;;
21152;SDS011;10734;44.792;20.482;2024-03-23T10:45:30;7.50;;;3.03;;
21152;SDS011;10734;44.792;20.482;2024-03-23T10:47:58;4.22;;;2.85;;
21152;SDS011;10734;44.792;20.482;2024-03-23T10:50:24;11.13;;;3.35;;
21152;SDS011;10734;44.792;20.482;2024-03-23T10:52:53;4.90;;;3.05;;
21152;SDS011;10734;44.792;20.482;2024-03-23T10:55:22;6.00;;;3.08;;
21152;SDS011;10734;44.792;20.482;2024-03-23T10:57:53;6.75;;;3.10;;
21152;SDS011;10734;44.792;20.482;2024-03-23T11:00:21;9.60;;;3.50;;
21152;SDS011;10734;44.792;20.482;2024-03-23T11:02:49;6.13;;;2.90;;
21152;SDS011;10734;44.792;20.482;2024-03-23T11:08:00;5.45;;;3.15;;
21152;SDS011;10734;44.792;20.482;2024-03-23T11:10:29;8.15;;;3.20;;
21152;SDS011;10734;44.792;20.482;2024-03-23T11:13:00;5.60;;;3.22;;
21152;SDS011;10734;44.792;20.482;2024-03-23T11:15:49;5.35;;;3.03;;
21152;SDS011;10734;44.792;20.482;2024-03-23T11:18:20;5.95;;;3.30;;
21152;SDS011;10734;44.792;20.482;2024-03-23T11:20:47;8.05;;;3.60;;
21152;SDS011;10734;44.792;20.482;2024-03-23T11:23:26;5.35;;;3.28;;
21152;SDS011;10734;44.792;20.482;2024-03-23T11:25:53;8.27;;;3.13;;
21152;SDS011;10734;44.792;20.482;2024-03-23T11:28:22;7.47;;;2.67;;
21152;SDS011;10734;44.792;20.482;2024-03-23T11:30:49;6.97;;;2.65;;
21152;SDS011;10734;44.792;20.482;2024-03-23T11:33:17;3.60;;;2.45;;
21152;SDS011;10734;44.792;20.482;2024-03-23T11:35:43;5.22;;;2.40;;
21152;SDS011;10734;44.792;20.482;2024-03-23T11:38:12;2.83;;;2.03;;
21152;SDS011;10734;44.792;20.482;2024-03-23T11:40:40;2.88;;;2.10;;
21152;SDS011;10734;44.792;20.482;2024-03-23T11:43:09;3.47;;;2.40;;
21152;SDS011;10734;44.792;20.482;2024-03-23T11:45:39;4.00;;;2.58;;
21152;SDS011;10734;44.792;20.482;2024-03-23T11:48:09;13.18;;;2.67;;
21152;SDS011;10734;44.792;20.482;2024-03-23T11:50:39;7.55;;;2.78;;
21152;SDS011;10734;44.792;20.482;2024-03-23T11:53:07;5.75;;;2.85;;
21152;SDS011;10734;44.792;20.482;2024-03-23T11:55:42;7.15;;;4.07;;
21152;SDS011;10734;44.792;20.482;2024-03-23T11:58:12;3.33;;;2.80;;
21152;SDS011;10734;44.792;20.482;2024-03-23T12:00:48;5.22;;;2.58;;
21152;SDS011;10734;44.792;20.482;2024-03-23T12:03:17;4.25;;;2.53;;
21152;SDS011;10734;44.792;20.482;2024-03-23T12:05:47;6.53;;;2.95;;
21152;SDS011;10734;44.792;20.482;2024-03-23T12:08:20;6.10;;;2.53;;
21152;SDS011;10734;44.792;20.482;2024-03-23T12:10:50;4.22;;;3.10;;
21152;SDS011;10734;44.792;20.482;2024-03-23T12:13:18;7.07;;;3.08;;
21152;SDS011;10734;44.792;20.482;2024-03-23T12:15:49;5.20;;;2.85;;
21152;SDS011;10734;44.792;20.482;2024-03-23T12:18:16;3.75;;;2.75;;
21152;SDS011;10734;44.792;20.482;2024-03-23T12:20:44;7.75;;;3.10;;
21152;SDS011;10734;44.792;20.482;2024-03-23T12:23:11;3.65;;;2.60;;
21152;SDS011;10734;44.792;20.482;2024-03-23T12:25:42;6.05;;;3.10;;
21152;SDS011;10734;44.792;20.482;2024-03-23T12:28:09;4.78;;;2.55;;
21152;SDS011;10734;44.792;20.482;2024-03-23T12:30:38;5.03;;;2.90;;
21152;SDS011;10734;44.792;20.482;2024-03-23T12:33:07;5.60;;;2.97;;
21152;SDS011;10734;44.792;20.482;2024-03-23T12:35:35;9.35;;;2.97;;
21152;SDS011;10734;44.792;20.482;2024-03-23T12:38:01;10.40;;;3.15;;
21152;SDS011;10734;44.792;20.482;2024-03-23T12:40:29;7.38;;;2.95;;
21152;SDS011;10734;44.792;20.482;2024-03-23T12:42:56;6.95;;;3.13;;
21152;SDS011;10734;44.792;20.482;2024-03-23T12:45:24;6.40;;;3.42;;
21152;SDS011;10734;44.792;20.482;2024-03-23T12:47:50;5.05;;;2.85;;
21152;SDS011;10734;44.792;20.482;2024-03-23T12:50:21;4.47;;;3.00;;
21152;SDS011;10734;44.792;20.482;2024-03-23T12:52:47;3.65;;;2.70;;
21152;SDS011;10734;44.792;20.482;2024-03-23T12:55:16;5.20;;;3.15;;
21152;SDS011;10734;44.792;20.482;2024-03-23T12:57:42;5.35;;;3.25;;
21152;SDS011;10734;44.792;20.482;2024-03-23T13:00:10;5.47;;;3.10;;
21152;SDS011;10734;44.792;20.482;2024-03-23T13:02:38;5.97;;;3.05;;
21152;SDS011;10734;44.792;20.482;2024-03-23T13:05:06;4.35;;;3.33;;
21152;SDS011;10734;44.792;20.482;2024-03-23T13:07:36;4.40;;;2.85;;
21152;SDS011;10734;44.792;20.482;2024-03-23T13:10:04;9.27;;;3.20;;
21152;SDS011;10734;44.792;20.482;2024-03-23T13:12:31;4.57;;;2.97;;
21152;SDS011;10734;44.792;20.482;2024-03-23T13:14:59;10.55;;;3.40;;
21152;SDS011;10734;44.792;20.482;2024-03-23T13:17:26;3.50;;;2.42;;
21152;SDS011;10734;44.792;20.482;2024-03-23T13:19:54;4.95;;;3.15;;
21152;SDS011;10734;44.792;20.482;2024-03-23T13:22:21;5.65;;;3.42;;
21152;SDS011;10734;44.792;20.482;2024-03-23T13:24:50;4.38;;;2.97;;
21152;SDS011;10734;44.792;20.482;2024-03-23T13:27:17;7.78;;;3.92;;
21152;SDS011;10734;44.792;20.482;2024-03-23T13:29:45;10.10;;;3.90;;
21152;SDS011;10734;44.792;20.482;2024-03-23T13:32:12;6.95;;;3.55;;
21152;SDS011;10734;44.792;20.482;2024-03-23T13:34:40;4.63;;;3.45;;
21152;SDS011;10734;44.792;20.482;2024-03-23T13:37:07;4.30;;;2.70;;
21152;SDS011;10734;44.792;20.482;2024-03-23T13:39:35;3.63;;;3.00;;
21152;SDS011;10734;44.792;20.482;2024-03-23T13:42:04;11.85;;;4.35;;
21152;SDS011;10734;44.792;20.482;2024-03-23T13:44:32;16.95;;;12.15;;
21152;SDS011;10734;44.792;20.482;2024-03-23T13:46:58;11.43;;;8.00;;
21152;SDS011;10734;44.792;20.482;2024-03-23T13:49:26;7.20;;;5.30;;
21152;SDS011;10734;44.792;20.482;2024-03-23T13:51:54;6.78;;;4.10;;
21152;SDS011;10734;44.792;20.482;2024-03-23T13:54:24;6.22;;;3.72;;
21152;SDS011;10734;44.792;20.482;2024-03-23T13:56:51;4.75;;;3.33;;
21152;SDS011;10734;44.792;20.482;2024-03-23T13:59:21;5.22;;;3.28;;
21152;SDS011;10734;44.792;20.482;2024-03-23T14:01:48;5.60;;;3.45;;
21152;SDS011;10734;44.792;20.482;2024-03-23T14:04:17;6.70;;;3.45;;
21152;SDS011;10734;44.792;20.482;2024-03-23T14:06:46;7.47;;;3.13;;
21152;SDS011;10734;44.792;20.482;2024-03-23T14:09:13;5.38;;;2.88;;
21152;SDS011;10734;44.792;20.482;2024-03-23T14:11:41;5.88;;;3.10;;
21152;SDS011;10734;44.792;20.482;2024-03-23T14:14:09;5.18;;;3.20;;
21152;SDS011;10734;44.792;20.482;2024-03-23T14:16:37;7.88;;;3.83;;
21152;SDS011;10734;44.792;20.482;2024-03-23T14:19:05;4.40;;;3.17;;
21152;SDS011;10734;44.792;20.482;2024-03-23T14:21:31;4.82;;;3.10;;
21152;SDS011;10734;44.792;20.482;2024-03-23T14:24:00;6.53;;;3.58;;
21152;SDS011;10734;44.792;20.482;2024-03-23T14:26:26;10.98;;;7.35;;
21152;SDS011;10734;44.792;20.482;2024-03-23T14:28:54;9.57;;;6.63;;
21152;SDS011;10734;44.792;20.482;2024-03-23T14:31:21;13.00;;;7.68;;
21152;SDS011;10734;44.792;20.482;2024-03-23T14:33:50;8.48;;;6.00;;
21152;SDS011;10734;44.792;20.482;2024-03-23T14:36:17;7.93;;;6.40;;
21152;SDS011;10734;44.792;20.482;2024-03-23T14:38:47;14.45;;;9.50;;
21152;SDS011;10734;44.792;20.482;2024-03-23T14:41:14;17.88;;;14.38;;
21152;SDS011;10734;44.792;20.482;2024-03-23T14:43:42;13.23;;;11.32;;
21152;SDS011;10734;44.792;20.482;2024-03-23T14:46:09;11.75;;;8.98;;
21152;SDS011;10734;44.792;20.482;2024-03-23T14:48:39;19.40;;;15.40;;
21152;SDS011;10734;44.792;20.482;2024-03-23T14:51:07;8.10;;;7.10;;
21152;SDS011;10734;44.792;20.482;2024-03-23T14:53:36;8.13;;;4.53;;
21152;SDS011;10734;44.792;20.482;2024-03-23T14:56:04;6.50;;;4.88;;
21152;SDS011;10734;44.792;20.482;2024-03-23T14:58:32;6.10;;;3.67;;
21152;SDS011;10734;44.792;20.482;2024-03-23T15:01:01;4.47;;;3.42;;
21152;SDS011;10734;44.792;20.482;2024-03-23T15:03:29;6.50;;;3.88;;
21152;SDS011;10734;44.792;20.482;2024-03-23T15:05:56;9.13;;;5.00;;
21152;SDS011;10734;44.792;20.482;2024-03-23T15:08:27;4.32;;;3.40;;
21152;SDS011;10734;44.792;20.482;2024-03-23T15:10:54;2.95;;;2.58;;
21152;SDS011;10734;44.792;20.482;2024-03-23T15:15:51;7.45;;;3.30;;
21152;SDS011;10734;44.792;20.482;2024-03-23T15:18:19;5.45;;;3.50;;
21152;SDS011;10734;44.792;20.482;2024-03-23T15:20:51;6.32;;;3.40;;
21152;SDS011;10734;44.792;20.482;2024-03-23T15:23:20;8.70;;;3.20;;
21152;SDS011;10734;44.792;20.482;2024-03-23T15:25:54;4.45;;;3.28;;